METAR Formatted Surface Weather Observation
Issued by NWS

Home | Current Version | Previous Version | Text Only | Print | Product List | Glossary On
Versions: 1 2 3 4 5 6 7 8
000
SAUS41 KRLX 050754
MTRCKB
METAR KCKB 050753Z 33006KT 3/4SM -SN BR VV009 M02/M03 A3008 RMK AO2
SLP190 P0003 T10171028 RVRNO



USA.gov is the U.S. government's official web portal to all federal, state and local government web resources and services.